createdAt,value
2023-01-30T00:01:29.494Z,7.20
2023-01-30T00:03:57.771Z,7.90
2023-01-30T00:06:26.563Z,8.00
2023-01-30T00:08:54.992Z,6.80
2023-01-30T00:11:23.048Z,7.40
2023-01-30T00:13:52.377Z,7.90
2023-01-30T00:16:20.554Z,7.20
2023-01-30T00:18:48.789Z,7.20
2023-01-30T00:21:17.382Z,6.80
2023-01-30T00:23:46.279Z,7.10
2023-01-30T00:26:14.415Z,7.70
2023-01-30T00:28:43.658Z,7.60
2023-01-30T00:31:11.818Z,7.60
2023-01-30T00:33:40.020Z,6.70
2023-01-30T00:36:09.927Z,6.90
2023-01-30T00:38:38.973Z,7.00
2023-01-30T00:41:10.903Z,6.30
2023-01-30T00:43:57.796Z,7.00
2023-01-30T00:46:53.093Z,6.30
2023-01-30T00:49:22.198Z,6.50
2023-01-30T00:51:50.296Z,6.20
2023-01-30T00:54:18.364Z,6.50
2023-01-30T00:56:46.489Z,6.30
2023-01-30T00:59:15.111Z,5.40
2023-01-30T01:01:43.240Z,6.60
2023-01-30T01:04:11.883Z,6.30
2023-01-30T01:06:40.992Z,6.10
2023-01-30T01:09:09.564Z,5.90
2023-01-30T01:11:37.740Z,5.80
2023-01-30T01:14:06.749Z,5.80
2023-01-30T01:16:36.046Z,5.70
2023-01-30T01:19:04.648Z,5.80
2023-01-30T01:21:33.020Z,5.70
2023-01-30T01:24:01.309Z,6.30
2023-01-30T01:26:29.733Z,5.90
2023-01-30T01:28:59.307Z,5.30
2023-01-30T01:31:27.581Z,5.30
2023-01-30T01:33:57.790Z,6.50
2023-01-30T01:36:53.105Z,5.50
2023-01-30T01:39:16.980Z,6.00
2023-01-30T01:41:45.065Z,5.70
2023-01-30T01:44:14.584Z,5.40
2023-01-30T01:46:48.802Z,5.40
2023-01-30T01:49:24.140Z,5.60
2023-01-30T01:51:58.141Z,6.20
2023-01-30T01:54:47.392Z,5.90
2023-01-30T01:57:22.375Z,5.60
2023-01-30T02:00:02.691Z,5.30
2023-01-30T02:02:44.078Z,5.30
2023-01-30T02:05:16.612Z,5.50
2023-01-30T02:08:01.391Z,5.50
2023-01-30T02:11:09.894Z,5.30
2023-01-30T02:13:38.896Z,6.00
2023-01-30T02:16:09.412Z,5.50
2023-01-30T02:18:42.078Z,5.10
2023-01-30T02:21:33.702Z,5.10
2023-01-30T02:24:27.168Z,5.00
2023-01-30T02:27:01.290Z,4.70
2023-01-30T02:30:05.216Z,5.70
2023-01-30T02:32:45.654Z,4.90
2023-01-30T02:35:21.397Z,5.60
2023-01-30T02:37:56.026Z,4.90
2023-01-30T02:40:39.597Z,5.00
2023-01-30T02:43:17.961Z,4.80
2023-01-30T02:46:22.370Z,5.70
2023-01-30T02:48:57.295Z,5.40
2023-01-30T02:51:32.223Z,5.40
2023-01-30T02:54:01.026Z,5.30
2023-01-30T02:56:29.210Z,5.80
2023-01-30T02:59:07.201Z,5.10
2023-01-30T03:01:54.522Z,5.30
2023-01-30T03:04:47.452Z,5.20
2023-01-30T03:07:38.560Z,5.40
2023-01-30T03:10:34.895Z,4.90
2023-01-30T03:13:33.248Z,6.00
2023-01-30T03:16:38.166Z,5.60
2023-01-30T03:19:12.276Z,5.40
2023-01-30T03:21:45.067Z,5.60
2023-01-30T03:24:14.261Z,5.20
2023-01-30T03:27:03.695Z,5.70
2023-01-30T03:29:33.846Z,5.60
2023-01-30T03:32:01.966Z,6.40
2023-01-30T03:34:30.830Z,5.80
2023-01-30T03:36:58.894Z,5.90
2023-01-30T03:39:27.898Z,5.40
2023-01-30T03:41:56.380Z,5.80
2023-01-30T03:44:24.559Z,5.40
2023-01-30T03:46:52.936Z,5.30
2023-01-30T03:49:21.934Z,5.60
2023-01-30T03:51:50.085Z,4.90
2023-01-30T03:54:18.602Z,4.90
2023-01-30T03:56:46.917Z,5.40
2023-01-30T03:59:15.033Z,5.80
2023-01-30T04:01:49.691Z,5.50
2023-01-30T04:04:17.971Z,5.10
2023-01-30T04:06:46.077Z,4.60
2023-01-30T04:09:14.432Z,4.80
2023-01-30T04:11:46.312Z,5.10
2023-01-30T04:14:14.571Z,5.30
2023-01-30T04:17:05.589Z,5.40
2023-01-30T04:19:59.829Z,4.60
2023-01-30T04:22:28.643Z,5.50
2023-01-30T04:24:56.742Z,5.30
2023-01-30T04:27:25.000Z,4.70
2023-01-30T04:30:16.410Z,5.30
2023-01-30T04:32:45.106Z,5.10
2023-01-30T04:35:13.378Z,5.20
2023-01-30T04:37:42.167Z,5.60
2023-01-30T04:40:11.523Z,5.50
2023-01-30T04:42:40.160Z,6.30
2023-01-30T04:45:34.336Z,6.70
2023-01-30T04:48:03.224Z,6.60
2023-01-30T04:50:33.060Z,6.40
2023-01-30T04:53:01.864Z,6.40
2023-01-30T04:55:30.222Z,6.90
2023-01-30T04:57:58.424Z,6.70
2023-01-30T05:00:27.345Z,6.30
2023-01-30T05:02:58.753Z,6.30
2023-01-30T05:05:28.375Z,6.20
2023-01-30T05:07:56.533Z,5.90
2023-01-30T05:10:24.815Z,7.20
2023-01-30T05:12:53.000Z,6.50
2023-01-30T05:15:21.267Z,6.10
2023-01-30T05:17:49.471Z,7.10
2023-01-30T05:20:18.041Z,6.40
2023-01-30T05:22:46.254Z,6.30
2023-01-30T05:25:14.401Z,6.60
2023-01-30T05:27:42.352Z,6.70
2023-01-30T05:30:11.174Z,6.90
2023-01-30T05:32:39.352Z,6.10
2023-01-30T05:35:08.554Z,6.90
2023-01-30T05:37:38.065Z,6.30
2023-01-30T05:40:06.856Z,6.90
2023-01-30T05:42:34.835Z,6.20
2023-01-30T05:45:03.172Z,6.30
2023-01-30T05:47:31.194Z,5.30
2023-01-30T05:49:59.359Z,6.00
2023-01-30T05:52:27.439Z,6.10
2023-01-30T05:54:55.580Z,5.90
2023-01-30T05:57:23.696Z,6.20
2023-01-30T05:59:52.075Z,6.00
2023-01-30T06:02:20.242Z,6.20
2023-01-30T06:04:48.431Z,6.50
2023-01-30T06:07:16.610Z,6.00
2023-01-30T06:09:44.694Z,6.70
2023-01-30T06:12:12.975Z,5.70
2023-01-30T06:14:40.975Z,5.40
2023-01-30T06:17:09.038Z,5.70
2023-01-30T06:19:37.302Z,5.30
2023-01-30T06:22:05.577Z,5.20
2023-01-30T06:24:33.774Z,5.70
2023-01-30T06:27:02.048Z,4.90
2023-01-30T06:29:30.122Z,5.50
2023-01-30T06:31:58.095Z,6.40
2023-01-30T06:34:26.054Z,5.90
2023-01-30T06:36:54.145Z,5.70
2023-01-30T06:39:22.113Z,5.30
2023-01-30T06:41:50.197Z,5.20
2023-01-30T06:44:18.169Z,5.80
2023-01-30T06:46:46.176Z,4.60
2023-01-30T06:49:14.213Z,5.30
2023-01-30T06:51:42.389Z,5.20
2023-01-30T06:54:10.444Z,5.80
2023-01-30T06:56:38.445Z,4.70
2023-01-30T06:59:06.466Z,5.60
2023-01-30T07:01:34.826Z,5.70
2023-01-30T07:04:02.942Z,5.20
2023-01-30T07:06:31.061Z,5.80
2023-01-30T07:08:59.441Z,6.90
2023-01-30T07:11:27.704Z,8.10
2023-01-30T07:13:55.763Z,7.80
2023-01-30T07:16:29.437Z,7.60
2023-01-30T07:18:58.814Z,8.20
2023-01-30T07:21:27.603Z,8.20
2023-01-30T07:23:55.883Z,8.00
2023-01-30T07:26:25.081Z,7.90
2023-01-30T07:28:53.378Z,7.90
2023-01-30T07:31:21.392Z,8.30
2023-01-30T07:33:49.411Z,7.60
2023-01-30T07:36:17.385Z,8.60
2023-01-30T07:38:47.809Z,9.10
2023-01-30T07:41:15.834Z,8.10
2023-01-30T07:43:43.745Z,8.80
2023-01-30T07:46:11.742Z,8.60
2023-01-30T07:48:39.824Z,8.60
2023-01-30T07:51:07.893Z,8.40
2023-01-30T07:53:35.834Z,8.00
2023-01-30T07:56:11.047Z,7.80
2023-01-30T07:58:39.188Z,8.60
2023-01-30T08:01:07.189Z,9.60
2023-01-30T08:03:35.403Z,9.30
2023-01-30T08:06:03.513Z,9.50
2023-01-30T08:08:31.439Z,8.80
2023-01-30T08:10:59.338Z,7.20
2023-01-30T08:13:27.433Z,7.90
2023-01-30T08:15:55.512Z,7.70
2023-01-30T08:18:23.517Z,6.20
2023-01-30T08:20:51.564Z,6.80
2023-01-30T08:23:19.522Z,6.80
2023-01-30T08:25:47.425Z,6.50
2023-01-30T08:28:15.478Z,6.40
2023-01-30T08:30:43.780Z,5.70
2023-01-30T08:33:12.047Z,6.80
2023-01-30T08:35:41.354Z,6.10
2023-01-30T08:38:09.335Z,6.20
2023-01-30T08:40:37.921Z,6.20
2023-01-30T08:43:06.905Z,6.20
2023-01-30T08:45:35.381Z,6.40
2023-01-30T08:48:06.092Z,6.10
2023-01-30T08:50:34.710Z,7.10
2023-01-30T08:53:05.646Z,6.30
2023-01-30T08:55:33.843Z,7.40
2023-01-30T08:58:01.998Z,7.00
2023-01-30T09:00:30.394Z,7.00
2023-01-30T09:02:58.792Z,6.90
2023-01-30T09:05:26.964Z,7.10
2023-01-30T09:07:55.148Z,7.40
2023-01-30T09:10:24.430Z,6.60
2023-01-30T09:12:52.531Z,7.10
2023-01-30T09:15:20.715Z,6.40
2023-01-30T09:17:48.982Z,7.30
2023-01-30T09:20:18.988Z,6.60
2023-01-30T09:22:47.489Z,6.60
2023-01-30T09:25:15.773Z,6.80
2023-01-30T09:27:44.772Z,7.50
2023-01-30T09:30:13.353Z,6.60
2023-01-30T09:32:41.434Z,6.50
2023-01-30T09:35:09.817Z,7.10
2023-01-30T09:37:37.992Z,6.40
2023-01-30T09:40:06.993Z,6.90
2023-01-30T09:42:40.797Z,6.70
2023-01-30T09:46:05.900Z,6.80
2023-01-30T09:48:43.265Z,6.10
2023-01-30T09:51:26.380Z,6.00
2023-01-30T09:54:15.451Z,5.80
2023-01-30T09:56:43.621Z,6.20
2023-01-30T09:59:22.422Z,6.20
2023-01-30T10:02:15.666Z,6.20
2023-01-30T10:05:00.654Z,6.20
2023-01-30T10:08:08.004Z,6.20
2023-01-30T10:13:26.693Z,5.40
2023-01-30T10:16:04.038Z,5.60
2023-01-30T10:19:08.689Z,5.50
2023-01-30T10:21:50.489Z,4.90
2023-01-30T10:24:33.289Z,5.20
2023-01-30T10:27:04.830Z,5.00
2023-01-30T10:29:39.181Z,5.70
2023-01-30T10:32:15.832Z,4.80
2023-01-30T10:34:49.853Z,4.80
2023-01-30T10:37:29.995Z,5.10
2023-01-30T10:40:23.251Z,5.30
2023-01-30T10:43:10.056Z,5.70
2023-01-30T10:46:08.218Z,6.30
2023-01-30T10:48:46.712Z,5.90
2023-01-30T10:51:18.043Z,6.10
2023-01-30T10:54:02.320Z,5.60
2023-01-30T10:56:45.653Z,5.80
2023-01-30T10:59:35.131Z,5.50
2023-01-30T11:02:13.937Z,5.90
2023-01-30T11:05:13.319Z,7.10
2023-01-30T11:07:43.469Z,5.90
2023-01-30T11:10:21.253Z,5.80
2023-01-30T11:12:58.201Z,5.80
2023-01-30T11:15:42.759Z,5.90
2023-01-30T11:18:49.725Z,5.40
2023-01-30T11:21:06.787Z,6.20
2023-01-30T11:23:43.432Z,5.60
2023-01-30T11:26:46.867Z,4.90
2023-01-30T11:29:15.721Z,5.10
2023-01-30T11:31:50.019Z,5.60
2023-01-30T11:34:21.500Z,5.80
2023-01-30T11:36:50.490Z,5.60
2023-01-30T11:39:23.991Z,5.70
2023-01-30T11:41:58.871Z,5.30
2023-01-30T11:44:32.897Z,5.70
2023-01-30T11:47:06.946Z,5.30
2023-01-30T11:49:46.340Z,5.20
2023-01-30T11:52:31.864Z,5.10
2023-01-30T11:55:08.702Z,5.60
2023-01-30T11:57:58.749Z,5.40
2023-01-30T12:00:38.851Z,5.40
2023-01-30T12:03:12.995Z,5.20
2023-01-30T12:05:42.798Z,5.30
2023-01-30T12:08:17.488Z,5.50
2023-01-30T12:11:01.577Z,5.60
2023-01-30T12:13:43.647Z,5.50
2023-01-30T12:16:32.483Z,5.30
2023-01-30T12:19:39.955Z,5.40
2023-01-30T12:22:31.679Z,5.30
2023-01-30T12:25:02.183Z,5.00
2023-01-30T12:27:46.261Z,5.40
2023-01-30T12:30:36.761Z,5.20
2023-01-30T12:33:07.078Z,4.80
2023-01-30T12:35:48.187Z,5.60
2023-01-30T12:38:51.636Z,4.90
2023-01-30T12:41:42.634Z,5.10
2023-01-30T12:44:55.358Z,5.40
2023-01-30T12:47:38.452Z,5.30
2023-01-30T12:50:37.563Z,5.30
2023-01-30T12:53:33.235Z,5.00
2023-01-30T12:56:10.737Z,5.50
2023-01-30T12:58:44.063Z,5.80
2023-01-30T13:01:43.312Z,5.00
2023-01-30T13:05:04.071Z,5.80
2023-01-30T13:07:44.467Z,6.70
2023-01-30T13:10:40.739Z,6.30
2023-01-30T13:13:27.061Z,6.10
2023-01-30T13:16:19.606Z,6.60
2023-01-30T13:19:14.478Z,5.50
2023-01-30T13:22:07.097Z,6.70
2023-01-30T13:24:47.432Z,6.30
2023-01-30T13:27:19.781Z,6.70
2023-01-30T13:29:49.365Z,7.60
2023-01-30T13:32:43.532Z,6.30
2023-01-30T13:35:19.314Z,7.20
2023-01-30T13:37:49.807Z,6.60
2023-01-30T13:40:21.757Z,6.10
2023-01-30T13:43:11.442Z,6.30
2023-01-30T13:45:45.230Z,7.20
2023-01-30T13:48:25.399Z,7.20
2023-01-30T13:51:13.115Z,7.30
2023-01-30T13:54:05.972Z,6.70
2023-01-30T13:56:57.995Z,6.80
2023-01-30T13:59:47.191Z,6.40
2023-01-30T14:02:19.591Z,6.30
2023-01-30T14:04:55.990Z,6.00
2023-01-30T14:07:30.092Z,6.70
2023-01-30T14:10:10.629Z,6.50
2023-01-30T14:12:52.651Z,6.60
2023-01-30T14:15:31.889Z,6.40
2023-01-30T14:18:07.631Z,6.60
2023-01-30T14:20:47.527Z,6.40
2023-01-30T14:23:32.256Z,6.90
2023-01-30T14:26:01.340Z,6.60
2023-01-30T14:28:30.348Z,6.70
2023-01-30T14:31:02.899Z,7.20
2023-01-30T14:33:34.897Z,7.30
2023-01-30T14:36:02.950Z,7.00
2023-01-30T14:38:33.289Z,6.30
2023-01-30T14:41:01.362Z,6.60
2023-01-30T14:43:42.054Z,7.00
2023-01-30T14:46:16.341Z,7.50
2023-01-30T14:48:48.526Z,7.50
2023-01-30T14:51:36.452Z,8.90
2023-01-30T14:54:14.556Z,9.20
2023-01-30T14:56:54.913Z,9.40
2023-01-30T14:59:28.959Z,9.80
2023-01-30T15:02:15.203Z,11.00
2023-01-30T15:04:56.503Z,10.60
2023-01-30T15:07:43.501Z,11.10
2023-01-30T15:10:35.318Z,10.70
2023-01-30T15:13:22.016Z,11.50
2023-01-30T15:16:13.605Z,10.90
2023-01-30T15:19:05.456Z,10.60
2023-01-30T15:21:37.515Z,11.10
2023-01-30T15:24:43.559Z,11.60
2023-01-30T15:27:53.493Z,10.90
2023-01-30T15:30:36.940Z,10.40
2023-01-30T15:33:31.107Z,10.90
2023-01-30T15:36:17.375Z,11.10
2023-01-30T15:38:45.394Z,11.20
2023-01-30T15:41:13.530Z,11.50
2023-01-30T15:44:02.685Z,11.30
2023-01-30T15:46:33.494Z,11.00
2023-01-30T15:49:26.574Z,12.50
2023-01-30T15:51:54.545Z,11.70
2023-01-30T15:54:24.357Z,11.90
2023-01-30T15:56:53.566Z,11.90
2023-01-30T15:59:35.709Z,11.30
2023-01-30T16:02:15.865Z,11.50
2023-01-30T16:04:44.504Z,11.00
2023-01-30T16:07:26.915Z,10.10
2023-01-30T16:10:07.337Z,10.40
2023-01-30T16:12:40.953Z,11.40
2023-01-30T16:15:19.876Z,11.70
2023-01-30T16:17:58.393Z,11.50
2023-01-30T16:20:26.895Z,10.70
2023-01-30T16:22:55.161Z,11.70
2023-01-30T16:25:26.909Z,11.40
2023-01-30T16:27:55.071Z,12.40
2023-01-30T16:30:29.890Z,10.70
2023-01-30T16:32:58.317Z,11.70
2023-01-30T16:35:31.103Z,11.90
2023-01-30T16:38:01.031Z,11.30
2023-01-30T16:40:45.718Z,11.90
2023-01-30T16:43:24.917Z,10.50
2023-01-30T16:46:12.998Z,10.30
2023-01-30T16:48:43.373Z,10.30
2023-01-30T16:51:20.864Z,11.30
2023-01-30T16:54:02.451Z,10.10
2023-01-30T16:56:34.638Z,9.90
2023-01-30T16:59:03.716Z,9.80
2023-01-30T17:01:37.298Z,10.00
2023-01-30T17:04:09.040Z,9.80
2023-01-30T17:06:40.253Z,9.30
2023-01-30T17:09:33.904Z,10.30
2023-01-30T17:12:22.539Z,9.60
2023-01-30T17:14:50.711Z,9.00
2023-01-30T17:17:19.909Z,8.60
2023-01-30T17:19:48.809Z,9.90
2023-01-30T17:22:25.275Z,9.10
2023-01-30T17:24:59.283Z,9.30
2023-01-30T17:27:29.004Z,9.10
2023-01-30T17:29:57.084Z,9.90
2023-01-30T17:32:28.593Z,10.90
2023-01-30T17:34:56.610Z,11.40
2023-01-30T17:37:24.583Z,11.00
2023-01-30T17:39:52.660Z,10.90
2023-01-30T17:42:22.455Z,10.80
2023-01-30T17:44:50.757Z,10.00
2023-01-30T17:47:18.732Z,10.00
2023-01-30T17:49:46.816Z,11.10
2023-01-30T17:52:14.893Z,10.60
2023-01-30T17:54:43.022Z,10.20
2023-01-30T17:57:15.261Z,9.30
2023-01-30T17:59:43.513Z,10.00
2023-01-30T18:02:11.596Z,10.70
2023-01-30T18:04:40.388Z,10.60
2023-01-30T18:07:12.866Z,10.00
2023-01-30T18:09:40.910Z,10.60
2023-01-30T18:12:08.909Z,9.40
2023-01-30T18:14:37.006Z,9.10
2023-01-30T18:17:05.106Z,9.00
2023-01-30T18:19:33.242Z,9.50
2023-01-30T18:22:01.247Z,9.90
2023-01-30T18:24:29.389Z,8.90
2023-01-30T18:26:57.967Z,9.40
2023-01-30T18:29:27.033Z,9.80
2023-01-30T18:31:55.165Z,9.40
2023-01-30T18:34:23.131Z,9.10
2023-01-30T18:36:51.215Z,9.40
2023-01-30T18:39:19.499Z,10.30
2023-01-30T18:41:47.471Z,8.90
2023-01-30T18:44:15.395Z,9.90
2023-01-30T18:46:43.656Z,9.80
2023-01-30T18:49:11.791Z,9.30
2023-01-30T18:51:40.589Z,9.90
2023-01-30T18:54:08.669Z,9.60
2023-01-30T18:56:37.267Z,9.90
2023-01-30T18:59:06.961Z,10.30
2023-01-30T19:01:42.542Z,8.90
2023-01-30T19:04:11.803Z,9.40
2023-01-30T19:06:42.560Z,9.00
2023-01-30T19:09:16.057Z,9.90
2023-01-30T19:12:02.763Z,9.40
2023-01-30T19:14:30.743Z,9.40
2023-01-30T19:16:58.695Z,9.90
2023-01-30T19:19:27.316Z,10.20
2023-01-30T19:21:55.361Z,9.40
2023-01-30T19:24:24.014Z,9.10
2023-01-30T19:26:52.387Z,9.20
2023-01-30T19:29:20.438Z,9.10
2023-01-30T19:31:48.511Z,8.90
2023-01-30T19:34:17.184Z,9.70
2023-01-30T19:36:45.153Z,9.00
2023-01-30T19:39:13.374Z,9.20
2023-01-30T19:41:41.337Z,9.10
2023-01-30T19:44:11.851Z,9.20
2023-01-30T19:46:39.964Z,8.00
2023-01-30T19:49:08.005Z,9.50
2023-01-30T19:51:36.206Z,8.80
2023-01-30T19:54:09.661Z,9.40
2023-01-30T19:56:41.033Z,8.40
2023-01-30T19:59:12.981Z,8.60
2023-01-30T20:01:41.119Z,8.10
2023-01-30T20:04:09.947Z,8.50
2023-01-30T20:06:38.868Z,8.00
2023-01-30T20:09:11.148Z,7.90
2023-01-30T20:11:41.713Z,7.40
2023-01-30T20:14:10.809Z,8.10
2023-01-30T20:16:39.649Z,8.10
2023-01-30T20:19:12.948Z,7.90
2023-01-30T20:21:41.335Z,8.00
2023-01-30T20:24:14.732Z,8.80
2023-01-30T20:26:47.146Z,8.30
2023-01-30T20:29:17.677Z,6.90
2023-01-30T20:31:46.033Z,7.90
2023-01-30T20:34:15.339Z,8.10
2023-01-30T20:36:43.523Z,7.90
2023-01-30T20:39:11.806Z,8.30
2023-01-30T20:41:40.075Z,8.80
2023-01-30T20:44:11.836Z,9.00
2023-01-30T20:46:42.725Z,9.50
2023-01-30T20:49:24.053Z,8.60
2023-01-30T20:51:54.379Z,9.70
2023-01-30T20:54:23.489Z,9.20
2023-01-30T20:56:53.387Z,9.40
2023-01-30T20:59:24.452Z,9.20
2023-01-30T21:01:53.248Z,8.80
2023-01-30T21:04:24.514Z,9.30
2023-01-30T21:06:52.597Z,9.50
2023-01-30T21:09:23.119Z,9.40
2023-01-30T21:11:53.385Z,9.60
2023-01-30T21:14:21.963Z,9.50
2023-01-30T21:16:50.259Z,9.60
2023-01-30T21:19:18.552Z,10.60
2023-01-30T21:21:53.413Z,10.30
2023-01-30T21:24:26.334Z,9.50
2023-01-30T21:26:55.602Z,10.10
2023-01-30T21:29:25.853Z,10.90
2023-01-30T21:31:55.673Z,10.20
2023-01-30T21:34:25.043Z,11.10
2023-01-30T21:37:12.043Z,10.20
2023-01-30T21:39:58.781Z,10.80
2023-01-30T21:42:47.282Z,9.90
2023-01-30T21:45:15.787Z,9.90
2023-01-30T21:47:43.752Z,10.60
2023-01-30T21:50:12.005Z,11.20
2023-01-30T21:52:40.137Z,10.30
2023-01-30T21:55:09.095Z,9.30
2023-01-30T21:57:37.585Z,11.10
2023-01-30T22:00:06.373Z,11.00
2023-01-30T22:02:34.355Z,10.10
2023-01-30T22:05:02.335Z,10.00
2023-01-30T22:07:32.108Z,10.10
2023-01-30T22:10:02.306Z,11.40
2023-01-30T22:12:32.184Z,9.50
2023-01-30T22:15:00.165Z,10.40
2023-01-30T22:17:28.320Z,10.00
2023-01-30T22:19:56.447Z,9.20
2023-01-30T22:22:25.534Z,10.20
2023-01-30T22:24:53.489Z,10.90
2023-01-30T22:27:21.462Z,9.70
2023-01-30T22:29:49.408Z,11.40
2023-01-30T22:32:17.407Z,10.40
2023-01-30T22:34:45.406Z,10.50
2023-01-30T22:37:16.502Z,10.00
2023-01-30T22:39:44.498Z,11.00
2023-01-30T22:42:12.596Z,9.10
2023-01-30T22:44:40.657Z,10.80
2023-01-30T22:47:08.871Z,9.60
2023-01-30T22:49:37.052Z,9.70
2023-01-30T22:52:05.265Z,9.70
2023-01-30T22:54:33.270Z,10.40
2023-01-30T22:57:01.247Z,9.30
2023-01-30T22:59:29.517Z,10.00
2023-01-30T23:01:57.663Z,10.40
2023-01-30T23:04:26.500Z,9.80
2023-01-30T23:06:54.465Z,9.10
2023-01-30T23:09:23.592Z,9.70
2023-01-30T23:12:15.798Z,10.70
2023-01-30T23:14:45.170Z,10.40
2023-01-30T23:17:31.929Z,10.60
2023-01-30T23:19:59.886Z,10.00
2023-01-30T23:22:28.261Z,10.20
2023-01-30T23:24:56.354Z,10.60
2023-01-30T23:27:24.415Z,10.90
2023-01-30T23:29:52.385Z,9.60
2023-01-30T23:32:20.662Z,10.50
2023-01-30T23:34:48.643Z,10.30
2023-01-30T23:37:17.265Z,10.40
2023-01-30T23:39:45.607Z,10.60
2023-01-30T23:42:13.510Z,11.40
2023-01-30T23:44:41.703Z,10.60
2023-01-30T23:47:09.642Z,11.10
2023-01-30T23:49:37.904Z,11.20
2023-01-30T23:52:06.103Z,11.30
2023-01-30T23:54:34.081Z,11.40
2023-01-30T23:57:02.023Z,10.90
2023-01-30T23:59:30.228Z,10.90
